Archival Weather

Rochelle Muni/Koritz Fld

Rochelle, Illinois (KRPJ)

Report from: Sunday, February 5, 2023 8:55 PM CST
Current time: Friday, June 21, 2024 6:52 PM CDT

Current weather – Weather history – Daily summaries
Weather forecast

Temperature-3.5°C (25.7°F)
Wind chill-5.8°C (21.5°F)
Dew point-3.6°C (25.5°F)
Winds 3 kts (1.5 m/s, 3.5 mph) West (280°)
Visibility10 mi. (16.1 km)
Clouds Sky clear
Altimeter30.13 in.Hg (1020 mB)
Relative humidity99 %
Density altitude-2,448 ft. (-746 m)
Remarks Fully automated report
Automated weather observing station with precipitation discriminator
Lightning detection system not operating
Flight conditions Visual Meteorological Conditions
Raw dataKRPJ 060255Z AUTO 28003KT 10SM CLR M03/M04 A3013 RMK AO2 T10351036 TSNO
An error has occurred. This application may no longer respond until reloaded. Reload 🗙